This is the latest recevied weather packets stored in our database for station/object OE5HCE. If no packets are shown the sender has not sent any weather packets the latest 10 day(s).
| Time | Temp. | Humidity | Pressure | Rain* | Wind** | Luminosity | Snow |
|---|---|---|---|---|---|---|---|
| 1787416250 | 20.56° C | 60% | 1020 hPa | 0 mm | - | 200 W/m² | - |
| 1787415346 | 21.11° C | 56% | 1019.9 hPa | 0 mm | - | 111 W/m² | - |
| 1787414451 | 22.22° C | 51% | 1019.8 hPa | 0 mm | - | 318 W/m² | - |
| 1787413537 | 22.22° C | 48% | 1019.7 hPa | 0 mm | - | 142 W/m² | - |
| 1787412641 | 23.33° C | 48% | 1019.6 hPa | 0 mm | - | 410 W/m² | - |
| 1787411730 | 22.22° C | 46% | 1019.4 hPa | 0 mm | - | 383 W/m² | - |
| 1787410824 | 22.22° C | 45% | 1019.3 hPa | 0 mm | - | 424 W/m² | - |
| 1787409942 | 21.67° C | 47% | 1019.3 hPa | 0 mm | - | 494 W/m² | - |
| 1787409015 | 21.11° C | 51% | 1019.2 hPa | 0 mm | - | 582 W/m² | - |
| 1787408110 | 20.56° C | 51% | 1019.2 hPa | 0 mm | - | 181 W/m² | - |
| 1787407206 | 21.11° C | 53% | 1019.2 hPa | 0 mm | - | 276 W/m² | - |
| 1787406302 | 21.11° C | 52% | 1019.1 hPa | 0 mm | - | 137 W/m² | - |
| 1787405457 | 22.22° C | 49% | 1018.9 hPa | 0 mm | - | 204 W/m² | - |
| 1787403648 | 21.67° C | 56% | 1018.9 hPa | 0 mm | - | 687 W/m² | - |
| 1787402744 | 22.22° C | 56% | 1018.9 hPa | 0 mm | - | 218 W/m² | - |
| 1787401840 | 21.67° C | 55% | 1018.9 hPa | 0 mm | - | 434 W/m² | - |
| 1787400934 | 20.56° C | 61% | 1018.9 hPa | 0 mm | - | 241 W/m² | - |
| 1787400030 | 20.56° C | 59% | 1018.9 hPa | 0 mm | - | 134 W/m² | - |
| 1787399128 | 21.11° C | 55% | 1018.8 hPa | 0 mm | - | 114 W/m² | - |
| 1787398220 | 22.22° C | 54% | 1018.7 hPa | 0 mm | - | 733 W/m² | - |
| 1787397316 | 21.11° C | 57% | 1018.8 hPa | 0 mm | - | 817 W/m² | - |
| 1787396412 | 20.56° C | 56% | 1018.7 hPa | 0 mm | - | 200 W/m² | - |
| 1787395518 | 21.11° C | 57% | 1018.7 hPa | 0 mm | - | 355 W/m² | - |
| 1787394604 | 20.56° C | 60% | 1018.4 hPa | 0 mm | - | 881 W/m² | - |
| 1787393758 | 20.56° C | 61% | 1018.6 hPa | 0 mm | - | 810 W/m² | - |
* Rain latest hour (hover to see other rain measurements)
** Current wind speed in m/s (hover to see current wind gust speed)